createdAt,value
2022-12-18T01:00:39.168Z,101738
2022-12-18T01:06:30.115Z,101727
2022-12-18T01:12:20.687Z,101733
2022-12-18T01:18:11.433Z,101731
2022-12-18T01:24:02.331Z,101733
2022-12-18T01:29:52.827Z,101725
2022-12-18T01:35:43.262Z,101724
2022-12-18T01:41:34.322Z,101723
2022-12-18T01:47:25.149Z,101724
2022-12-18T01:53:16.065Z,101737
2022-12-18T01:59:07.210Z,101732
2022-12-18T02:04:57.885Z,101724
2022-12-18T02:10:48.801Z,101719
2022-12-18T02:16:41.303Z,101716
2022-12-18T02:22:32.490Z,101715
2022-12-18T02:28:23.600Z,101715
2022-12-18T02:34:14.782Z,101713
2022-12-18T02:40:05.809Z,101726
2022-12-18T02:45:56.628Z,101730
2022-12-18T02:51:48.506Z,101713
2022-12-18T02:57:39.270Z,101713
2022-12-18T03:03:30.699Z,101713
2022-12-18T03:09:21.946Z,101702
2022-12-18T03:15:19.951Z,101708
2022-12-18T03:21:10.368Z,101698
2022-12-18T03:27:01.493Z,101699
2022-12-18T03:32:53.859Z,101704
2022-12-18T03:38:49.958Z,101688
2022-12-18T03:44:40.679Z,101691
2022-12-18T03:50:31.939Z,101686
2022-12-18T03:56:23.715Z,101682
2022-12-18T04:02:15.861Z,101670
2022-12-18T04:08:07.589Z,101668
2022-12-18T04:14:03.631Z,101674
2022-12-18T04:20:08.584Z,101670
2022-12-18T04:25:59.778Z,101667
2022-12-18T04:31:50.307Z,101666
2022-12-18T04:37:41.220Z,101663
2022-12-18T04:43:31.759Z,101661
2022-12-18T04:49:22.718Z,101653
2022-12-18T04:55:14.635Z,101669
2022-12-18T05:01:05.412Z,101665
2022-12-18T05:06:57.444Z,101657
2022-12-18T05:12:47.790Z,101653
2022-12-18T05:18:38.680Z,101647
2022-12-18T05:24:30.827Z,101638
2022-12-18T05:30:21.987Z,101634
2022-12-18T05:36:13.944Z,101640
2022-12-18T05:42:05.122Z,101638
2022-12-18T05:47:55.739Z,101635
2022-12-18T05:53:47.783Z,101645
2022-12-18T05:59:38.694Z,101654
2022-12-18T06:05:29.470Z,101659
2022-12-18T06:11:20.647Z,101666
2022-12-18T06:17:11.920Z,101673
2022-12-18T06:23:02.838Z,101689
2022-12-18T06:28:53.247Z,101694
2022-12-18T06:34:44.306Z,101700
2022-12-18T06:40:34.403Z,101697
2022-12-18T06:46:24.939Z,101691
2022-12-18T06:52:16.115Z,101680
2022-12-18T07:46:48.838Z,101691
2022-12-18T10:29:06.665Z,101536
2022-12-18T11:35:50.674Z,101505
2022-12-18T11:48:33.989Z,101497
2022-12-18T12:07:07.591Z,101465
2022-12-18T12:13:41.571Z,101465
2022-12-18T12:19:56.103Z,101460
2022-12-18T12:39:41.771Z,101446
2022-12-18T12:53:07.359Z,101446
2022-12-18T12:59:19.014Z,101444
2022-12-18T13:05:38.975Z,101441
2022-12-18T13:12:35.086Z,101438
2022-12-18T13:19:16.946Z,101433
2022-12-18T13:25:47.514Z,101440
2022-12-18T14:20:52.495Z,101434
2022-12-18T14:27:01.075Z,101435
2022-12-18T14:32:57.005Z,101432
2022-12-18T14:39:07.506Z,101419
2022-12-18T14:45:19.580Z,101414
2022-12-18T14:51:41.292Z,101399
2022-12-18T14:58:10.012Z,101397
2022-12-18T15:04:14.645Z,101401
2022-12-18T15:10:15.312Z,101411
2022-12-18T15:16:23.861Z,101410
2022-12-18T15:22:49.835Z,101421
2022-12-18T15:41:51.064Z,101434
2022-12-18T15:47:58.552Z,101446
2022-12-18T16:06:11.929Z,101429
2022-12-18T16:12:04.551Z,101418
2022-12-18T16:18:32.534Z,101408
2022-12-18T16:38:38.392Z,101371
2022-12-18T16:45:03.239Z,101383
2022-12-18T16:51:02.484Z,101374
2022-12-18T16:56:51.472Z,101368
2022-12-18T17:09:31.070Z,101373
2022-12-18T17:16:03.769Z,101370
2022-12-18T17:22:32.759Z,101370
2022-12-18T17:40:46.375Z,101368
2022-12-18T18:33:24.015Z,101302
2022-12-18T19:19:11.783Z,101302
2022-12-18T19:25:17.916Z,101280
2022-12-18T19:31:42.042Z,101281
2022-12-18T19:38:00.891Z,101273
2022-12-18T19:50:36.189Z,101288
2022-12-18T20:03:07.731Z,101253
2022-12-18T20:09:40.606Z,101252
2022-12-18T20:15:45.679Z,101269
2022-12-18T20:28:48.195Z,101286
2022-12-18T21:00:36.638Z,101276
2022-12-18T22:01:47.799Z,101279
2022-12-18T22:15:22.225Z,101251
2022-12-18T22:21:56.597Z,101234
2022-12-18T22:54:18.286Z,101191
2022-12-18T23:00:24.042Z,101194
2022-12-18T23:06:49.081Z,101191
2022-12-18T23:32:04.095Z,101172
2022-12-18T23:38:32.703Z,101176
2022-12-18T23:45:08.576Z,101163
2022-12-18T23:51:42.436Z,101153
